HPV weather

Princeville Airport
Hanalei, Hawaii, United States

Public forecast

Using degrees Fahrenheit for public forecast. Weather courtesy of forecast.io.

Closest aviation weather report (METAR) to Princeville Airport

Closest report is Lihue Airport, 15.2 nm (28.2 km) SSE. Retrieved 2020/06/01 17:53 UTC (1 hour ago):

PHLI 011753Z 04008KT 10SM SCT018 26/22 A3009

Closest aviation forecast (TAF) to Princeville Airport

Closest forecast is Lihue Airport, 15.2 nm (28.2 km) SSE. Retrieved 2020/06/01 18:51 UTC (6 minutes ago):

TAF PHLI 011749Z 0118/0218 05010KT P6SM VCSH FEW015 SCT025 SCT040 FM012100 04012KT P6SM FEW035 SCT050 FM020600 03008KT P6SM VCSH SCT025 BKN035